Time;durP1;ratioP1;P1;durP2;ratioP2;P2;SDS_P1;SDS_P2;PMS_P1;PMS_P2;Temp;Humidity;BMP_temperature;BMP_pressure;BME280_temperature;BME280_humidity;BME280_pressure;Samples;Min_cycle;Max_cycle;Signal;HPM_P1;HPM_P2
2022/10/27 00:02:15;;;;;;;11.70;2.70;;;13.80;99.90;;;;;;5025452;28;20040;-72
2022/10/27 00:04:41;;;;;;;11.20;2.78;;;13.80;99.90;;;;;;5024345;28;20037;-72
2022/10/27 00:07:07;;;;;;;17.00;2.80;;;13.80;99.90;;;;;;5026632;28;20494;-72
2022/10/27 00:09:32;;;;;;;11.73;2.70;;;13.80;99.90;;;;;;5028178;28;20581;-71
2022/10/27 00:11:58;;;;;;;16.33;3.25;;;13.70;99.90;;;;;;5029412;28;20560;-72
2022/10/27 00:14:24;;;;;;;12.68;3.10;;;13.70;99.90;;;;;;5030234;28;20491;-72
2022/10/27 00:16:55;;;;;;;13.43;3.47;;;13.70;99.90;;;;;;5026697;28;20060;-72
2022/10/27 00:19:22;;;;;;;15.93;3.40;;;13.70;99.90;;;;;;5034415;28;20041;-72
2022/10/27 00:21:49;;;;;;;12.85;3.35;;;13.60;99.90;;;;;;5026748;28;20509;-72
2022/10/27 00:24:15;;;;;;;17.80;3.65;;;13.60;99.90;;;;;;5025114;28;20451;-72
2022/10/27 00:26:41;;;;;;;13.68;3.92;;;13.60;99.90;;;;;;5030683;28;20391;-72
2022/10/27 00:29:06;;;;;;;13.15;4.38;;;13.60;99.90;;;;;;5027406;28;20056;-72
2022/10/27 00:31:32;;;;;;;10.25;4.57;;;13.60;99.90;;;;;;5029215;28;20057;-71
2022/10/27 00:33:58;;;;;;;14.25;4.00;;;13.60;99.90;;;;;;5025112;28;20033;-71
2022/10/27 00:36:24;;;;;;;13.02;3.80;;;13.50;99.90;;;;;;5024929;28;20043;-71
2022/10/27 00:38:55;;;;;;;16.77;3.90;;;13.50;99.90;;;;;;5045861;28;20043;-71
2022/10/27 00:41:32;;;;;;;12.73;4.13;;;13.50;99.90;;;;;;5036848;28;20034;-71
2022/10/27 00:44:00;;;;;;;14.85;3.88;;;13.50;99.90;;;;;;5028328;28;20045;-72
2022/10/27 00:46:30;;;;;;;15.43;4.10;;;13.50;99.90;;;;;;5041033;28;20045;-71
2022/10/27 00:49:09;;;;;;;17.60;4.60;;;13.50;99.90;;;;;;5041725;28;20059;-71
2022/10/27 00:51:39;;;;;;;16.17;4.53;;;13.50;99.90;;;;;;5013746;28;20726;-72
2022/10/27 00:54:05;;;;;;;19.10;5.22;;;13.40;99.90;;;;;;5023576;28;20380;-72
2022/10/27 00:56:31;;;;;;;11.63;4.40;;;13.40;99.90;;;;;;5017093;28;20442;-71
2022/10/27 00:58:57;;;;;;;16.75;5.20;;;13.40;99.90;;;;;;5025685;28;20033;-72
2022/10/27 01:01:23;;;;;;;12.20;4.43;;;13.30;99.90;;;;;;5025249;28;20034;-72
2022/10/27 01:03:49;;;;;;;13.20;5.05;;;13.40;99.90;;;;;;5025636;28;20076;-71
2022/10/27 01:06:15;;;;;;;15.00;4.85;;;13.40;99.90;;;;;;5022739;28;20497;-72
2022/10/27 01:08:42;;;;;;;18.63;5.07;;;13.30;99.90;;;;;;5033701;28;20048;-71
2022/10/27 01:11:08;;;;;;;13.52;5.07;;;13.40;99.90;;;;;;5054444;28;20075;-72
2022/10/27 01:13:34;;;;;;;14.55;5.13;;;13.30;99.90;;;;;;5025551;28;20068;-72
2022/10/27 01:16:06;;;;;;;17.00;6.13;;;13.30;99.90;;;;;;5036894;28;20041;-71
2022/10/27 01:18:56;;;;;;;15.63;5.65;;;13.30;99.90;;;;;;5029980;28;20132;-71
2022/10/27 01:21:34;;;;;;;13.05;5.82;;;13.30;99.90;;;;;;5040600;28;20124;-72
2022/10/27 01:24:12;;;;;;;19.30;6.95;;;13.30;99.90;;;;;;5026662;28;20057;-71
2022/10/27 01:26:50;;;;;;;16.40;6.68;;;13.30;99.90;;;;;;5028654;28;20554;-72
2022/10/27 01:29:27;;;;;;;17.65;7.05;;;13.30;99.90;;;;;;5039878;28;20071;-71
2022/10/27 01:32:19;;;;;;;14.52;6.43;;;13.20;99.90;;;;;;5051140;28;20077;-73
2022/10/27 01:35:19;;;;;;;14.80;6.60;;;13.20;99.90;;;;;;5028166;28;20108;-70
2022/10/27 01:38:01;;;;;;;16.15;7.25;;;13.30;99.90;;;;;;5029238;28;20049;-70
2022/10/27 01:40:30;;;;;;;20.67;7.47;;;13.30;99.90;;;;;;5045121;28;20041;-70
2022/10/27 01:43:06;;;;;;;18.23;7.35;;;13.30;99.90;;;;;;5036683;28;20136;-70
2022/10/27 01:45:35;;;;;;;17.13;7.30;;;13.30;99.90;;;;;;5031766;28;20410;-70
2022/10/27 01:48:03;;;;;;;18.77;7.40;;;13.30;99.90;;;;;;5039775;28;20049;-71
2022/10/27 01:50:34;;;;;;;18.67;8.60;;;13.30;99.90;;;;;;5031467;28;20750;-71
2022/10/27 01:53:00;;;;;;;;;;;13.30;99.90;;;;;;5032964;28;20177;-72
2022/10/27 01:55:26;;;;;;;13.93;7.82;;;13.30;99.90;;;;;;5035695;28;20409;-72
2022/10/27 01:58:25;;;;;;;15.23;8.27;;;13.30;99.90;;;;;;5040519;28;20052;-72
2022/10/27 02:01:16;;;;;;;16.05;8.45;;;13.40;99.90;;;;;;5018914;28;20474;-72
2022/10/27 02:04:11;;;;;;;14.90;7.40;;;13.40;99.90;;;;;;5038406;28;20041;-72
2022/10/27 02:06:51;;;;;;;16.20;8.63;;;13.30;99.90;;;;;;5049895;28;20052;-70
2022/10/27 02:09:42;;;;;;;16.35;7.88;;;13.40;99.90;;;;;;5024066;28;20518;-71
2022/10/27 02:12:21;;;;;;;17.77;7.80;;;13.40;99.90;;;;;;5039397;28;20068;-71
2022/10/27 02:14:51;;;;;;;16.92;7.53;;;13.30;99.90;;;;;;5040311;28;20048;-70
2022/10/27 02:17:19;;;;;;;19.55;8.70;;;13.30;99.90;;;;;;5044521;28;20043;-70
2022/10/27 02:19:48;;;;;;;17.75;8.23;;;13.40;99.90;;;;;;5023009;28;20072;-70
2022/10/27 02:22:14;;;;;;;14.77;8.30;;;13.30;99.90;;;;;;5033167;28;20046;-70
2022/10/27 02:24:41;;;;;;;11.90;7.03;;;13.40;99.90;;;;;;5025137;28;20478;-71
2022/10/27 02:27:09;;;;;;;17.27;7.75;;;13.40;99.90;;;;;;5029386;28;20061;-71
2022/10/27 02:29:45;;;;;;;17.02;7.93;;;13.30;99.90;;;;;;5021655;28;20041;-71
2022/10/27 02:32:15;;;;;;;18.00;8.30;;;13.30;99.90;;;;;;5026473;28;20052;-71
2022/10/27 02:34:43;;;;;;;15.68;7.68;;;13.40;99.90;;;;;;5033524;28;20045;-71
2022/10/27 02:37:15;;;;;;;16.20;8.23;;;13.40;99.90;;;;;;5029040;28;20041;-72
2022/10/27 02:39:40;;;;;;;15.55;7.35;;;13.40;99.90;;;;;;5037668;28;20417;-72
2022/10/27 02:42:06;;;;;;;16.83;8.23;;;13.30;99.90;;;;;;5032741;28;20030;-71
2022/10/27 02:44:32;;;;;;;18.83;8.80;;;13.40;99.90;;;;;;5042926;28;20375;-71
2022/10/27 02:46:57;;;;;;;16.40;8.35;;;13.40;99.90;;;;;;5019388;28;20053;-71
2022/10/27 02:49:23;;;;;;;13.57;7.57;;;13.40;99.90;;;;;;5031893;28;20037;-71
2022/10/27 02:51:49;;;;;;;21.23;8.05;;;13.40;99.90;;;;;;5029603;28;20128;-71
2022/10/27 02:54:14;;;;;;;20.92;7.82;;;13.60;99.90;;;;;;5018361;28;20138;-71
2022/10/27 02:56:40;;;;;;;21.23;8.13;;;13.40;99.90;;;;;;5031903;28;20143;-72
2022/10/27 02:59:06;;;;;;;16.85;7.70;;;13.30;99.90;;;;;;5021573;28;20110;-71
2022/10/27 03:01:32;;;;;;;14.23;7.43;;;13.40;99.90;;;;;;5041349;28;20426;-71
2022/10/27 03:03:57;;;;;;;13.55;7.18;;;13.30;99.90;;;;;;5033234;28;20046;-72
2022/10/27 03:06:23;;;;;;;14.48;7.40;;;13.40;99.90;;;;;;5029529;28;20124;-71
2022/10/27 03:08:49;;;;;;;15.07;7.47;;;13.40;99.90;;;;;;5035533;28;20098;-71
2022/10/27 03:11:14;;;;;;;15.82;7.97;;;13.60;99.90;;;;;;5042169;28;20036;-71
2022/10/27 03:13:40;;;;;;;15.95;7.55;;;13.40;99.90;;;;;;5041511;28;20037;-71
2022/10/27 03:16:06;;;;;;;19.60;7.60;;;13.40;99.90;;;;;;5011020;28;20071;-71
2022/10/27 03:18:32;;;;;;;15.57;7.72;;;13.40;99.90;;;;;;5024804;28;20041;-71
2022/10/27 03:20:57;;;;;;;21.95;7.93;;;13.40;99.90;;;;;;5025729;28;20042;-71
2022/10/27 03:23:23;;;;;;;12.55;6.78;;;13.40;99.90;;;;;;5036603;28;20038;-71
2022/10/27 03:25:50;;;;;;;13.65;7.22;;;13.40;99.90;;;;;;5017545;28;20585;-71
2022/10/27 03:28:16;;;;;;;12.63;7.10;;;13.30;99.90;;;;;;5027715;28;20711;-71
2022/10/27 03:30:42;;;;;;;13.00;7.07;;;13.30;99.90;;;;;;5026321;28;20449;-71
2022/10/27 03:33:08;;;;;;;17.77;7.78;;;13.40;99.90;;;;;;5009571;28;20053;-71
2022/10/27 03:35:33;;;;;;;15.65;7.38;;;13.40;99.90;;;;;;5025144;28;20053;-72
2022/10/27 03:38:00;;;;;;;15.90;7.82;;;13.40;99.90;;;;;;5035974;28;20055;-71
2022/10/27 03:40:27;;;;;;;18.70;7.28;;;13.30;99.90;;;;;;5037534;28;20037;-71
2022/10/27 03:42:57;;;;;;;17.35;8.45;;;13.30;99.90;;;;;;5042760;28;20045;-71
2022/10/27 03:45:25;;;;;;;18.85;8.57;;;13.30;99.90;;;;;;5025647;28;20041;-72
2022/10/27 03:48:03;;;;;;;18.52;7.60;;;13.30;99.90;;;;;;5050956;28;20039;-71
2022/10/27 03:50:29;;;;;;;17.90;7.78;;;13.30;99.90;;;;;;5012160;28;20096;-72
2022/10/27 03:52:55;;;;;;;14.00;7.53;;;13.30;99.90;;;;;;5029786;28;20048;-71
2022/10/27 03:55:21;;;;;;;14.25;7.35;;;13.40;99.90;;;;;;5044135;28;20048;-71
2022/10/27 03:57:47;;;;;;;17.70;8.27;;;13.30;99.90;;;;;;5012798;28;20037;-72
2022/10/27 04:00:13;;;;;;;13.63;7.13;;;13.30;99.90;;;;;;5025996;28;20084;-71
2022/10/27 04:02:39;;;;;;;15.75;7.78;;;13.30;99.90;;;;;;5023704;28;20601;-72
2022/10/27 04:05:05;;;;;;;16.98;8.23;;;13.30;99.90;;;;;;5030180;28;20037;-72
2022/10/27 04:07:31;;;;;;;14.88;8.05;;;13.30;99.90;;;;;;5040131;28;20041;-72
2022/10/27 04:09:56;;;;;;;16.95;8.23;;;13.30;99.90;;;;;;5023933;28;20048;-72
2022/10/27 04:12:22;;;;;;;18.55;7.13;;;13.30;99.90;;;;;;5028978;28;20087;-72
2022/10/27 04:14:49;;;;;;;17.70;7.97;;;13.30;99.90;;;;;;5032781;28;20114;-70
2022/10/27 04:17:16;;;;;;;19.67;9.00;;;13.30;99.90;;;;;;5023550;28;20053;-71
2022/10/27 04:19:42;;;;;;;16.25;7.75;;;13.30;99.90;;;;;;5025447;28;20037;-71
2022/10/27 04:22:08;;;;;;;18.23;8.63;;;13.30;99.90;;;;;;5040685;28;20090;-72
2022/10/27 04:24:34;;;;;;;16.80;8.27;;;13.30;99.90;;;;;;5023296;28;20556;-71
2022/10/27 04:26:59;;;;;;;16.55;8.85;;;13.20;99.90;;;;;;5036647;28;20387;-72
2022/10/27 04:29:25;;;;;;;17.67;8.20;;;13.30;99.90;;;;;;5042110;28;20115;-72
2022/10/27 04:31:51;;;;;;;20.63;8.95;;;13.30;99.90;;;;;;5038519;28;20116;-72
2022/10/27 04:34:16;;;;;;;19.20;8.02;;;13.20;99.90;;;;;;5007250;28;20042;-72
2022/10/27 04:36:42;;;;;;;21.35;9.65;;;13.30;99.90;;;;;;5021325;28;20559;-72
2022/10/27 04:39:12;;;;;;;18.00;8.80;;;13.30;99.90;;;;;;5021322;28;20152;-72
2022/10/27 04:41:39;;;;;;;14.10;8.70;;;13.20;99.90;;;;;;5029453;28;20412;-72
2022/10/27 04:44:05;;;;;;;18.42;9.30;;;13.30;99.90;;;;;;5009796;28;20056;-72
2022/10/27 04:46:30;;;;;;;15.27;8.32;;;13.20;99.90;;;;;;5023057;28;20037;-72
2022/10/27 04:48:56;;;;;;;17.08;8.48;;;13.20;99.90;;;;;;5030198;28;20049;-72
2022/10/27 04:51:22;;;;;;;16.90;8.80;;;13.20;99.90;;;;;;5026146;28;20041;-71
2022/10/27 04:53:48;;;;;;;19.20;9.02;;;13.20;99.90;;;;;;5028535;28;20060;-71
2022/10/27 04:56:13;;;;;;;14.25;8.65;;;13.20;99.90;;;;;;5056618;28;20080;-71
2022/10/27 04:58:39;;;;;;;18.30;9.13;;;13.20;99.90;;;;;;5036830;28;20569;-71
2022/10/27 05:01:09;;;;;;;16.80;8.95;;;13.20;99.90;;;;;;5006583;28;20574;-71
2022/10/27 05:03:35;;;;;;;18.02;9.85;;;13.20;99.90;;;;;;5018978;28;20045;-71
2022/10/27 05:06:02;;;;;;;19.75;8.50;;;13.20;99.90;;;;;;5015058;28;20164;-71
2022/10/27 05:08:27;;;;;;;19.17;9.13;;;13.20;99.90;;;;;;5018615;28;21703;-72
2022/10/27 05:10:53;;;;;;;19.58;9.00;;;13.40;99.90;;;;;;5029696;28;20047;-71
2022/10/27 05:13:19;;;;;;;17.10;9.63;;;13.10;99.90;;;;;;5027660;28;20044;-71
2022/10/27 05:15:44;;;;;;;17.17;9.80;;;13.20;99.90;;;;;;5025332;28;20498;-71
2022/10/27 05:18:10;;;;;;;16.83;8.93;;;13.20;99.90;;;;;;5016474;28;20136;-71
2022/10/27 05:20:37;;;;;;;17.52;9.55;;;13.10;99.90;;;;;;5017222;28;20111;-73
2022/10/27 05:23:03;;;;;;;17.52;9.10;;;13.20;99.90;;;;;;5020570;28;20106;-72
2022/10/27 05:25:29;;;;;;;25.50;10.35;;;13.10;99.90;;;;;;5019184;28;20674;-72
2022/10/27 05:28:03;;;;;;;15.95;9.57;;;13.10;99.90;;;;;;5010137;28;20060;-72
2022/10/27 05:30:28;;;;;;;18.15;10.25;;;13.10;99.90;;;;;;5019560;28;20054;-71
2022/10/27 05:32:54;;;;;;;18.15;9.35;;;13.10;99.90;;;;;;5021720;28;20494;-71
2022/10/27 05:35:20;;;;;;;16.55;8.70;;;13.20;99.90;;;;;;5023381;28;20452;-71
2022/10/27 05:37:46;;;;;;;18.42;9.70;;;13.20;99.90;;;;;;5017904;28;20460;-71
2022/10/27 05:40:13;;;;;;;17.60;8.70;;;13.20;99.90;;;;;;5018363;28;20049;-71
2022/10/27 05:42:39;;;;;;;17.95;9.35;;;13.20;99.90;;;;;;5025360;28;20045;-72
2022/10/27 05:45:05;;;;;;;18.10;9.32;;;13.20;99.90;;;;;;5022559;28;20132;-71
2022/10/27 05:47:34;;;;;;;16.02;8.77;;;13.20;99.90;;;;;;5043943;28;20069;-72
2022/10/27 05:49:59;;;;;;;18.45;9.32;;;13.20;99.90;;;;;;5019889;28;20042;-72
2022/10/27 05:52:25;;;;;;;19.35;9.95;;;13.30;99.90;;;;;;5034815;28;20057;-72
2022/10/27 05:54:51;;;;;;;17.70;9.43;;;13.30;99.90;;;;;;5017210;28;20128;-71
2022/10/27 05:57:16;;;;;;;21.05;10.25;;;13.30;99.90;;;;;;5022989;28;20049;-72
2022/10/27 05:59:42;;;;;;;16.52;8.80;;;13.30;99.90;;;;;;5011405;28;20034;-72
2022/10/27 06:02:09;;;;;;;16.08;8.75;;;13.30;99.90;;;;;;5033049;28;20048;-72
2022/10/27 06:04:35;;;;;;;19.27;9.80;;;13.30;99.90;;;;;;5014331;28;21469;-72
2022/10/27 06:07:00;;;;;;;18.77;8.82;;;13.30;99.90;;;;;;5016665;28;20075;-72
2022/10/27 06:09:26;;;;;;;14.73;9.13;;;13.30;99.90;;;;;;5003645;28;20047;-71
2022/10/27 06:11:52;;;;;;;20.42;9.23;;;13.30;99.90;;;;;;5013653;28;20041;-71
2022/10/27 06:14:17;;;;;;;16.05;9.05;;;13.30;99.90;;;;;;5017293;28;20123;-71
2022/10/27 06:16:43;;;;;;;19.88;10.10;;;13.30;99.90;;;;;;5019305;28;20045;-71
2022/10/27 06:19:09;;;;;;;16.88;8.27;;;13.30;99.90;;;;;;5014586;28;20057;-71
2022/10/27 06:21:34;;;;;;;15.57;8.75;;;13.30;99.90;;;;;;5020342;28;20070;-71
2022/10/27 06:24:00;;;;;;;15.50;9.00;;;13.30;99.90;;;;;;5013492;28;20121;-72
2022/10/27 06:26:26;;;;;;;19.95;8.90;;;13.30;99.90;;;;;;5016949;28;20524;-71
2022/10/27 06:28:52;;;;;;;21.98;9.13;;;13.30;99.90;;;;;;5011340;28;20491;-71
2022/10/27 06:31:17;;;;;;;17.52;9.20;;;13.30;99.90;;;;;;5009843;28;20506;-71
2022/10/27 06:33:43;;;;;;;21.02;9.25;;;13.30;99.90;;;;;;5016485;28;20643;-71
2022/10/27 06:36:09;;;;;;;17.90;9.77;;;13.30;99.90;;;;;;5014949;28;20059;-71
2022/10/27 06:38:34;;;;;;;17.70;9.48;;;13.30;99.90;;;;;;5014348;28;20049;-71
2022/10/27 06:41:00;;;;;;;15.43;9.90;;;13.30;99.90;;;;;;5012757;28;20594;-71
2022/10/27 06:43:26;;;;;;;16.23;9.50;;;13.30;99.90;;;;;;5011865;28;20088;-71
2022/10/27 06:45:51;;;;;;;20.63;9.57;;;13.30;99.90;;;;;;5012557;28;20073;-73
2022/10/27 06:48:17;;;;;;;20.52;9.77;;;13.30;99.90;;;;;;5015144;28;20042;-69
2022/10/27 06:50:43;;;;;;;18.60;9.50;;;13.20;99.90;;;;;;5003800;28;20673;-70
2022/10/27 06:53:08;;;;;;;16.50;9.52;;;13.40;99.90;;;;;;5008291;28;20462;-71
2022/10/27 06:55:34;;;;;;;18.88;9.57;;;13.40;99.90;;;;;;5014990;28;20059;-70
2022/10/27 06:58:00;;;;;;;16.60;8.88;;;13.40;99.90;;;;;;5010506;28;20049;-70
2022/10/27 07:00:26;;;;;;;18.98;9.82;;;13.40;99.90;;;;;;5013966;28;20466;-71
2022/10/27 07:02:52;;;;;;;16.15;9.02;;;13.40;99.90;;;;;;5014317;28;20680;-72
2022/10/27 07:05:18;;;;;;;15.95;9.23;;;13.50;99.90;;;;;;5018077;28;20049;-72
2022/10/27 07:07:51;;;;;;;15.23;8.65;;;13.50;99.90;;;;;;5019819;28;20041;-72
2022/10/27 07:10:18;;;;;;;23.73;8.82;;;13.50;99.90;;;;;;5012773;28;20055;-71
2022/10/27 07:12:54;;;;;;;16.40;8.30;;;13.50;99.90;;;;;;5013383;28;20053;-72
2022/10/27 07:15:21;;;;;;;13.57;8.18;;;13.50;99.90;;;;;;5019219;28;20107;-72
2022/10/27 07:17:47;;;;;;;14.35;8.10;;;13.60;99.90;;;;;;5013170;28;20077;-72
2022/10/27 07:20:12;;;;;;;14.80;7.93;;;13.60;99.90;;;;;;5007374;28;20459;-72
2022/10/27 07:22:40;;;;;;;15.77;7.90;;;13.60;99.90;;;;;;5023725;28;20044;-72
2022/10/27 07:25:07;;;;;;;14.52;7.25;;;13.70;99.90;;;;;;5008417;28;20108;-71
2022/10/27 07:27:32;;;;;;;15.65;7.00;;;13.70;99.90;;;;;;4996822;28;20048;-72
2022/10/27 07:29:58;;;;;;;17.50;8.02;;;13.70;99.90;;;;;;5012886;28;20061;-72
2022/10/27 07:32:24;;;;;;;13.23;6.93;;;13.70;99.90;;;;;;5022514;28;20132;-72
2022/10/27 07:34:50;;;;;;;12.50;7.22;;;13.80;99.90;;;;;;5014336;28;20132;-71
2022/10/27 07:37:16;;;;;;;15.60;7.78;;;13.80;99.90;;;;;;5015599;28;21642;-72
2022/10/27 07:39:41;;;;;;;14.23;6.93;;;13.80;99.90;;;;;;5002751;28;21025;-72
2022/10/27 07:42:07;;;;;;;13.23;6.53;;;13.90;99.90;;;;;;5037106;28;20060;-71
2022/10/27 07:44:33;;;;;;;12.82;7.07;;;13.90;99.90;;;;;;5006645;28;20038;-71
2022/10/27 07:46:58;;;;;;;12.73;6.50;;;13.90;99.90;;;;;;5005195;28;20046;-71
2022/10/27 07:49:24;;;;;;;13.57;6.85;;;14.00;99.90;;;;;;5005648;28;20085;-71
2022/10/27 07:51:50;;;;;;;14.65;6.65;;;14.00;99.90;;;;;;5001668;28;20042;-71
2022/10/27 07:54:15;;;;;;;14.60;6.47;;;14.00;99.90;;;;;;5009900;28;20045;-71
2022/10/27 07:56:41;;;;;;;11.60;6.40;;;14.10;99.90;;;;;;5007334;28;20037;-71
2022/10/27 07:59:07;;;;;;;13.43;6.97;;;14.10;99.90;;;;;;5004905;28;20508;-71
2022/10/27 08:01:32;;;;;;;15.23;6.70;;;14.10;99.90;;;;;;5010895;28;20070;-71
2022/10/27 08:03:58;;;;;;;14.40;6.20;;;14.20;99.90;;;;;;5005729;28;20442;-71
2022/10/27 08:06:24;;;;;;;21.13;6.60;;;14.20;99.90;;;;;;5010807;28;20340;-71
2022/10/27 08:08:50;;;;;;;13.50;6.28;;;14.20;99.90;;;;;;5017563;28;20042;-71
2022/10/27 08:11:15;;;;;;;11.18;6.25;;;14.30;99.90;;;;;;5014023;28;20052;-71
2022/10/27 08:13:41;;;;;;;10.43;6.03;;;14.30;99.90;;;;;;4999427;28;20124;-71
2022/10/27 08:16:07;;;;;;;12.38;6.32;;;14.30;99.90;;;;;;5012968;28;20072;-71
2022/10/27 08:18:33;;;;;;;12.63;5.97;;;14.40;99.90;;;;;;5016287;28;20091;-72
2022/10/27 08:20:58;;;;;;;12.18;6.13;;;14.40;99.90;;;;;;4999271;28;20049;-72
2022/10/27 08:23:24;;;;;;;13.35;6.57;;;14.40;99.90;;;;;;5005344;28;20046;-71
2022/10/27 08:25:51;;;;;;;14.43;6.70;;;14.50;99.90;;;;;;4998135;28;20391;-71
2022/10/27 08:28:17;;;;;;;13.57;6.47;;;14.50;99.90;;;;;;5012404;28;20033;-71
2022/10/27 08:30:43;;;;;;;13.60;6.90;;;14.50;99.90;;;;;;4994322;28;20041;-72
2022/10/27 08:33:09;;;;;;;14.00;6.82;;;14.60;99.90;;;;;;5016158;28;20060;-71
2022/10/27 08:35:35;;;;;;;14.75;6.22;;;14.60;99.90;;;;;;5014041;28;20063;-71
2022/10/27 08:38:15;;;;;;;15.25;5.97;;;14.60;99.90;;;;;;5010049;28;20613;-72
2022/10/27 08:41:09;;;;;;;15.50;6.30;;;14.60;99.90;;;;;;5016196;28;20538;-72
2022/10/27 08:43:35;;;;;;;11.23;6.45;;;14.60;99.90;;;;;;5011271;28;20373;-71
2022/10/27 08:46:07;;;;;;;15.07;6.30;;;14.70;99.90;;;;;;5010859;28;20045;-72
2022/10/27 08:48:36;;;;;;;13.75;6.45;;;14.70;99.90;;;;;;5010641;28;20116;-71
2022/10/27 08:51:09;;;;;;;15.95;6.35;;;14.80;99.90;;;;;;5012619;28;20039;-72
2022/10/27 08:53:36;;;;;;;13.75;6.97;;;14.90;99.90;;;;;;5010555;28;20120;-72
2022/10/27 08:56:08;;;;;;;19.17;6.32;;;15.00;99.90;;;;;;5012823;28;20116;-71
2022/10/27 08:58:45;;;;;;;15.18;6.65;;;15.00;99.90;;;;;;5016840;28;20053;-71
2022/10/27 09:02:02;;;;;;;15.48;5.97;;;15.10;99.90;;;;;;5013520;28;20041;-71
2022/10/27 09:04:27;;;;;;;11.80;5.72;;;15.30;99.90;;;;;;4989850;28;20053;-71
2022/10/27 09:07:02;;;;;;;12.15;5.82;;;15.40;99.90;;;;;;5010721;28;20053;-71
2022/10/27 09:09:43;;;;;;;15.65;5.25;;;15.40;99.90;;;;;;5014369;28;20042;-71
2022/10/27 09:13:10;;;;;;;11.90;5.05;;;15.50;99.90;;;;;;5016452;28;20057;-72
2022/10/27 09:15:41;;;;;;;11.05;4.97;;;15.60;99.90;;;;;;4928750;29;20044;-72
2022/10/27 09:18:36;;;;;;;11.80;5.40;;;15.60;99.90;;;;;;4920345;28;20047;-71
2022/10/27 09:21:10;;;;;;;12.50;5.60;;;15.70;99.90;;;;;;4990503;28;20144;-71
2022/10/27 09:23:50;;;;;;;10.15;4.25;;;15.70;99.90;;;;;;5016257;28;20050;-71
2022/10/27 09:26:19;;;;;;;12.73;4.47;;;15.80;99.90;;;;;;5019547;28;20038;-71
2022/10/27 09:28:50;;;;;;;12.77;4.38;;;15.80;99.90;;;;;;5017657;28;20172;-71
2022/10/27 09:31:24;;;;;;;14.95;5.18;;;15.80;99.90;;;;;;5001995;28;20110;-72
2022/10/27 09:34:24;;;;;;;9.45;4.70;;;15.90;99.90;;;;;;5017236;28;20045;-72
2022/10/27 09:36:51;;;;;;;11.25;4.05;;;15.90;99.90;;;;;;5001076;28;20778;-71
2022/10/27 09:39:17;;;;;;;9.90;4.20;;;16.00;99.90;;;;;;5002504;28;20061;-72
2022/10/27 09:41:42;;;;;;;13.95;4.45;;;16.00;99.90;;;;;;5016434;28;20410;-72
2022/10/27 09:44:20;;;;;;;11.93;4.10;;;16.10;99.90;;;;;;5019729;28;20045;-72
2022/10/27 09:46:56;;;;;;;9.93;3.83;;;16.10;99.90;;;;;;5020545;28;21673;-72
2022/10/27 09:49:33;;;;;;;12.52;3.85;;;16.10;99.90;;;;;;5013754;28;20384;-71
2022/10/27 09:52:16;;;;;;;9.45;4.00;;;16.20;99.90;;;;;;5021489;28;20076;-71
2022/10/27 09:54:53;;;;;;;10.52;3.95;;;16.20;99.90;;;;;;5015211;28;20502;-72
2022/10/27 09:57:22;;;;;;;10.18;3.75;;;16.20;99.90;;;;;;5017811;28;20120;-71
2022/10/27 10:00:04;;;;;;;10.00;4.47;;;16.30;99.90;;;;;;5015300;28;20037;-72
2022/10/27 10:02:34;;;;;;;9.02;4.13;;;16.30;99.90;;;;;;5032696;28;20046;-72
2022/10/27 10:05:01;;;;;;;13.55;4.10;;;16.30;99.90;;;;;;5014362;28;20137;-72
2022/10/27 10:07:30;;;;;;;9.98;3.60;;;16.40;99.90;;;;;;5019195;28;20045;-72
2022/10/27 10:10:29;;;;;;;10.43;3.55;;;16.40;99.90;;;;;;5016443;28;20056;-72
2022/10/27 10:13:02;;;;;;;9.30;3.72;;;16.40;99.90;;;;;;5009706;28;20049;-72
2022/10/27 10:15:28;;;;;;;12.38;4.07;;;16.40;99.90;;;;;;5015396;28;20257;-71
2022/10/27 10:17:59;;;;;;;10.50;3.10;;;16.50;99.90;;;;;;5017825;28;20105;-71
2022/10/27 10:20:36;;;;;;;;;;;16.60;99.90;;;;;;5010921;28;20041;-72
2022/10/27 10:23:27;;;;;;;11.80;3.38;;;16.60;99.90;;;;;;5018417;28;19925;-71
2022/10/27 10:25:56;;;;;;;6.45;2.80;;;16.60;99.90;;;;;;5014015;28;20053;-71
2022/10/27 10:28:38;;;;;;;9.63;3.20;;;16.70;99.90;;;;;;5012521;28;20045;-71
2022/10/27 10:31:07;;;;;;;10.30;3.00;;;16.80;99.90;;;;;;5017222;28;20079;-73
2022/10/27 10:33:46;;;;;;;10.02;2.90;;;16.80;99.90;;;;;;5012752;28;20040;-72
2022/10/27 10:36:26;;;;;;;10.13;3.00;;;16.80;99.90;;;;;;5017611;28;20049;-73
2022/10/27 10:38:59;;;;;;;9.05;2.95;;;16.80;99.90;;;;;;5017595;28;20041;-72
2022/10/27 10:41:29;;;;;;;8.73;2.80;;;16.90;99.90;;;;;;5014219;28;20038;-73
2022/10/27 10:44:15;;;;;;;11.30;2.67;;;16.90;99.90;;;;;;5017691;28;20057;-72
2022/10/27 10:46:52;;;;;;;10.30;2.97;;;17.00;99.90;;;;;;5034377;28;20515;-73
2022/10/27 10:49:25;;;;;;;12.85;3.13;;;17.00;99.90;;;;;;5013256;28;20053;-73
2022/10/27 10:52:05;;;;;;;8.10;2.28;;;17.00;99.90;;;;;;5015085;28;20107;-72
2022/10/27 10:54:38;;;;;;;9.25;2.40;;;17.10;99.90;;;;;;5010182;28;20135;-71
2022/10/27 10:57:05;;;;;;;8.27;2.20;;;17.10;99.90;;;;;;5011077;28;20540;-71
2022/10/27 10:59:33;;;;;;;8.07;2.78;;;17.20;99.90;;;;;;5015257;28;20054;-71
2022/10/27 11:02:05;;;;;;;13.77;2.95;;;17.30;99.90;;;;;;5015449;28;20100;-72
2022/10/27 11:04:39;;;;;;;10.65;2.42;;;17.40;99.90;;;;;;5041781;28;20043;-71
2022/10/27 11:07:24;;;;;;;10.88;2.17;;;17.40;99.90;;;;;;5019888;28;20045;-71
2022/10/27 11:09:58;;;;;;;8.73;2.20;;;17.50;99.90;;;;;;5019204;28;20045;-71
2022/10/27 11:12:38;;;;;;;10.18;2.45;;;17.50;99.90;;;;;;5018592;28;20045;-70
2022/10/27 11:15:35;;;;;;;10.13;2.25;;;17.60;99.90;;;;;;5018319;28;20414;-71
2022/10/27 11:18:11;;;;;;;7.28;2.10;;;17.70;99.90;;;;;;4999909;28;20545;-71
2022/10/27 11:20:37;;;;;;;9.57;2.15;;;17.80;99.90;;;;;;5015613;28;20041;-72
2022/10/27 11:23:16;;;;;;;5.57;1.77;;;17.80;99.90;;;;;;5017167;28;20047;-72
2022/10/27 11:25:44;;;;;;;11.98;2.10;;;17.80;99.90;;;;;;5017506;28;20049;-71
2022/10/27 11:28:33;;;;;;;7.40;2.03;;;17.80;99.90;;;;;;5021003;28;20049;-72
2022/10/27 11:31:19;;;;;;;11.18;2.13;;;17.90;99.90;;;;;;5039696;28;20042;-72
2022/10/27 11:33:52;;;;;;;6.88;1.92;;;17.90;99.90;;;;;;5015334;28;20081;-72
2022/10/27 11:36:32;;;;;;;10.43;1.92;;;18.00;99.90;;;;;;5019971;28;20076;-71
2022/10/27 11:39:30;;;;;;;6.55;1.63;;;18.00;99.90;;;;;;5020296;28;20704;-72
2022/10/27 11:42:20;;;;;;;5.85;1.77;;;18.10;99.90;;;;;;5016287;28;20146;-71
2022/10/27 11:45:19;;;;;;;4.85;1.40;;;18.10;99.90;;;;;;5011555;28;20465;-72
2022/10/27 11:47:47;;;;;;;6.68;1.60;;;18.20;99.90;;;;;;5010116;28;20053;-72
2022/10/27 11:50:42;;;;;;;4.30;1.52;;;18.20;99.90;;;;;;5014675;28;20069;-72
2022/10/27 11:53:09;;;;;;;6.28;1.33;;;18.30;99.90;;;;;;5002755;28;20154;-71
2022/10/27 11:56:14;;;;;;;4.85;1.35;;;18.40;99.90;;;;;;5020518;28;20045;-71
2022/10/27 11:59:14;;;;;;;8.93;1.33;;;18.50;99.90;;;;;;5022446;28;20042;-72
2022/10/27 12:01:43;;;;;;;5.57;1.50;;;18.60;99.90;;;;;;5022312;28;20136;-71
2022/10/27 12:04:31;;;;;;;4.68;1.33;;;18.60;99.90;;;;;;4997009;28;20093;-72
2022/10/27 12:07:03;;;;;;;6.45;1.17;;;18.60;99.90;;;;;;5017127;28;20034;-71
2022/10/27 12:09:46;;;;;;;6.13;1.40;;;18.60;99.90;;;;;;5018295;28;20083;-71
2022/10/27 12:12:20;;;;;;;6.03;1.15;;;18.60;99.90;;;;;;5012817;28;20087;-71
2022/10/27 12:15:07;;;;;;;5.63;1.30;;;18.70;99.90;;;;;;5016490;28;20056;-72
2022/10/27 12:18:00;;;;;;;7.60;1.20;;;18.70;99.90;;;;;;5017379;28;20053;-71
2022/10/27 12:20:43;;;;;;;4.22;1.10;;;18.80;99.90;;;;;;5014908;28;20056;-71
2022/10/27 12:23:35;;;;;;;6.72;1.45;;;18.80;99.90;;;;;;5018419;28;20415;-71
2022/10/27 12:26:23;;;;;;;6.15;1.20;;;18.80;99.90;;;;;;5017785;28;20053;-71
2022/10/27 12:28:50;;;;;;;6.65;1.77;;;18.90;99.90;;;;;;5009558;28;20521;-71
2022/10/27 12:31:22;;;;;;;7.43;1.25;;;18.90;99.90;;;;;;5008806;28;20084;-71
2022/10/27 12:33:56;;;;;;;3.95;1.10;;;19.00;99.90;;;;;;5013621;28;20501;-71
2022/10/27 12:36:51;;;;;;;5.70;1.40;;;19.00;99.90;;;;;;5012919;28;20520;-70
2022/10/27 12:39:29;;;;;;;5.25;1.23;;;19.00;99.90;;;;;;5021858;28;20076;-71
2022/10/27 12:42:09;;;;;;;5.45;1.30;;;19.10;99.90;;;;;;5015698;28;20049;-71
2022/10/27 12:44:40;;;;;;;9.85;1.85;;;19.00;99.90;;;;;;5014113;28;20038;-71
2022/10/27 12:47:36;;;;;;;3.80;1.00;;;19.00;99.90;;;;;;5013887;28;20080;-71
2022/10/27 12:50:21;;;;;;;7.88;1.17;;;19.10;99.90;;;;;;5006593;28;20399;-71
2022/10/27 12:52:57;;;;;;;5.70;1.45;;;19.10;99.90;;;;;;5012069;28;20469;-70
2022/10/27 12:55:44;;;;;;;5.65;1.10;;;19.10;99.90;;;;;;5016357;28;20687;-72
2022/10/27 12:58:28;;;;;;;6.38;1.30;;;19.10;99.90;;;;;;5019138;28;20557;-71
2022/10/27 13:01:09;;;;;;;4.90;1.15;;;19.10;99.90;;;;;;5017178;28;20041;-71